createdAt,value
2018-08-04T00:00:30.907Z,27.80
2018-08-04T00:02:57.800Z,27.70
2018-08-04T00:05:24.740Z,27.70
2018-08-04T00:07:51.597Z,27.70
2018-08-04T00:10:33.684Z,27.70
2018-08-04T00:13:14.550Z,27.70
2018-08-04T00:15:56.206Z,27.60
2018-08-04T00:18:24.728Z,27.50
2018-08-04T00:20:51.665Z,27.50
2018-08-04T00:23:18.522Z,27.50
2018-08-04T00:25:45.460Z,27.50
2018-08-04T00:28:12.304Z,27.50
2018-08-04T00:30:39.248Z,27.50
2018-08-04T00:33:06.112Z,27.40
2018-08-04T00:35:33.028Z,27.40
2018-08-04T00:37:59.924Z,27.40
2018-08-04T00:40:26.778Z,27.20
2018-08-04T00:42:53.712Z,27.20
2018-08-04T00:45:21.325Z,27.00
2018-08-04T00:47:48.268Z,26.90
2018-08-04T00:50:15.217Z,26.90
2018-08-04T00:52:42.157Z,26.80
2018-08-04T00:55:09.048Z,26.80
2018-08-04T00:57:36.709Z,26.70
2018-08-04T01:00:04.444Z,26.70
2018-08-04T01:02:31.351Z,26.70
2018-08-04T01:04:58.217Z,26.60
2018-08-04T01:07:25.192Z,26.60
2018-08-04T01:09:52.149Z,26.70
2018-08-04T01:12:19.112Z,26.60
2018-08-04T01:14:46.728Z,26.50
2018-08-04T01:17:13.665Z,26.50
2018-08-04T01:19:40.533Z,26.40
2018-08-04T01:22:07.486Z,26.40
2018-08-04T01:24:34.337Z,26.30
2018-08-04T01:27:01.393Z,26.30
2018-08-04T01:29:28.266Z,26.30
2018-08-04T01:31:55.169Z,26.40
2018-08-04T01:34:22.017Z,26.40
2018-08-04T01:36:48.948Z,26.40
2018-08-04T01:39:15.829Z,26.40
2018-08-04T01:41:43.486Z,26.40
2018-08-04T01:44:11.092Z,26.40
2018-08-04T01:46:37.991Z,26.40
2018-08-04T01:49:04.844Z,26.50
2018-08-04T01:51:32.552Z,26.40
2018-08-04T01:53:59.432Z,26.40
2018-08-04T01:56:26.354Z,26.40
2018-08-04T01:58:53.259Z,26.20
2018-08-04T02:01:20.175Z,26.30
2018-08-04T02:03:47.018Z,26.20
2018-08-04T02:06:14.671Z,26.30
2018-08-04T02:08:41.526Z,26.20
2018-08-04T02:11:09.275Z,26.20
2018-08-04T02:13:36.188Z,26.20
2018-08-04T02:16:03.068Z,26.20
2018-08-04T02:18:29.968Z,26.20
2018-08-04T02:20:56.880Z,26.20
2018-08-04T02:23:23.819Z,26.20
2018-08-04T02:25:51.421Z,26.30
2018-08-04T02:28:18.323Z,26.20
2018-08-04T02:30:45.917Z,26.20
2018-08-04T02:33:26.310Z,26.20
2018-08-04T02:35:54.119Z,26.20
2018-08-04T02:38:21.776Z,26.10
2018-08-04T02:40:49.364Z,26.00
2018-08-04T02:43:16.288Z,26.00
2018-08-04T02:45:43.878Z,26.00
2018-08-04T02:48:10.788Z,26.00
2018-08-04T02:50:38.463Z,26.00
2018-08-04T02:53:05.391Z,26.00
2018-08-04T02:55:32.984Z,26.00
2018-08-04T02:57:59.891Z,26.00
2018-08-04T03:00:26.733Z,26.10
2018-08-04T03:02:54.421Z,26.10
2018-08-04T03:05:21.380Z,26.10
2018-08-04T03:07:48.310Z,26.10
2018-08-04T03:10:15.149Z,26.10
2018-08-04T03:12:42.068Z,26.10
2018-08-04T03:15:08.916Z,26.00
2018-08-04T03:17:35.816Z,26.00
2018-08-04T03:20:02.726Z,25.90
2018-08-04T03:22:30.394Z,25.80
2018-08-04T03:24:57.992Z,25.90
2018-08-04T03:27:24.921Z,25.80
2018-08-04T03:29:51.763Z,25.80
2018-08-04T03:32:18.686Z,25.80
2018-08-04T03:34:45.558Z,25.70
2018-08-04T03:37:12.470Z,25.80
2018-08-04T03:39:40.158Z,25.50
2018-08-04T03:42:07.009Z,25.50
2018-08-04T03:44:33.948Z,25.40
2018-08-04T03:47:00.799Z,25.30
2018-08-04T03:49:27.700Z,25.10
2018-08-04T03:51:54.625Z,25.10
2018-08-04T03:54:21.522Z,25.20
2018-08-04T03:56:48.440Z,25.30
2018-08-04T03:59:15.350Z,25.30
2018-08-04T04:01:42.290Z,25.50
2018-08-04T04:04:09.209Z,25.50
2018-08-04T04:06:36.111Z,25.50
2018-08-04T04:09:03.237Z,25.50
2018-08-04T04:11:30.121Z,25.60
2018-08-04T04:13:57.032Z,25.60
2018-08-04T04:16:23.891Z,25.60
2018-08-04T04:18:51.161Z,25.70
2018-08-04T04:21:18.797Z,25.60
2018-08-04T04:23:45.724Z,25.50
2018-08-04T04:26:14.099Z,25.60
2018-08-04T04:28:41.025Z,25.50
2018-08-04T04:31:07.888Z,25.60
2018-08-04T04:33:34.849Z,25.60
2018-08-04T04:36:01.734Z,25.50
2018-08-04T04:38:28.644Z,25.60
2018-08-04T04:40:55.504Z,25.60
2018-08-04T04:43:23.161Z,25.70
2018-08-04T04:45:50.012Z,25.60
2018-08-04T04:48:16.883Z,25.80
2018-08-04T04:50:43.800Z,26.00
2018-08-04T04:53:11.452Z,26.30
2018-08-04T04:55:38.369Z,26.20
2018-08-04T04:58:05.283Z,26.50
2018-08-04T05:00:32.253Z,27.00
2018-08-04T05:02:59.125Z,28.80
2018-08-04T05:05:26.036Z,29.00
2018-08-04T05:07:52.912Z,30.40
2018-08-04T05:10:19.824Z,31.80
2018-08-04T05:12:46.668Z,32.50
2018-08-04T05:15:13.617Z,33.30
2018-08-04T05:17:40.548Z,33.00
2018-08-04T05:20:07.520Z,32.00
2018-08-04T05:22:34.372Z,31.10
2018-08-04T05:25:01.329Z,31.60
2018-08-04T05:27:28.192Z,30.40
2018-08-04T05:29:55.145Z,29.30
2018-08-04T05:32:22.013Z,28.80
2018-08-04T05:34:49.685Z,28.80
2018-08-04T05:37:16.597Z,28.80
2018-08-04T05:39:43.512Z,29.50
2018-08-04T05:42:10.404Z,29.60
2018-08-04T05:44:37.323Z,29.50
2018-08-04T05:47:04.228Z,29.30
2018-08-04T05:49:31.138Z,29.30
2018-08-04T05:51:58.787Z,28.90
2018-08-04T05:54:25.707Z,28.90
2018-08-04T05:56:52.580Z,28.70
2018-08-04T05:59:20.244Z,28.30
2018-08-04T06:01:47.112Z,28.40
2018-08-04T06:04:14.020Z,28.10
2018-08-04T06:06:40.911Z,28.10
2018-08-04T06:09:07.815Z,28.10
2018-08-04T06:11:34.669Z,27.70
2018-08-04T06:14:01.569Z,27.50
2018-08-04T06:16:28.531Z,27.40
2018-08-04T06:18:55.383Z,27.40
2018-08-04T06:21:22.321Z,27.70
2018-08-04T06:23:49.205Z,27.90
2018-08-04T06:26:16.872Z,28.50
2018-08-04T06:28:44.464Z,28.50
2018-08-04T06:31:11.386Z,28.50
2018-08-04T06:33:38.232Z,28.70
2018-08-04T06:36:05.155Z,28.50
2018-08-04T06:38:32.760Z,28.50
2018-08-04T06:40:59.694Z,28.50
2018-08-04T06:43:26.571Z,28.20
2018-08-04T06:45:53.485Z,27.90
2018-08-04T06:48:20.369Z,28.30
2018-08-04T06:50:47.309Z,28.50
2018-08-04T06:53:14.172Z,28.30
2018-08-04T06:55:41.088Z,28.70
2018-08-04T06:58:07.972Z,28.70
2018-08-04T07:00:35.732Z,29.30
2018-08-04T07:03:02.612Z,29.20
2018-08-04T07:05:29.561Z,29.10
2018-08-04T07:07:56.512Z,29.30
2018-08-04T07:10:23.428Z,29.20
2018-08-04T07:12:51.124Z,29.60
2018-08-04T07:15:18.039Z,29.60
2018-08-04T07:17:44.891Z,29.60
2018-08-04T07:20:11.807Z,29.90
2018-08-04T07:22:38.691Z,29.90
2018-08-04T07:25:05.652Z,29.80
2018-08-04T07:27:32.497Z,29.90
2018-08-04T07:30:13.561Z,30.00
2018-08-04T07:35:38.216Z,29.40
2018-08-04T07:38:16.033Z,29.30
2018-08-04T07:40:44.215Z,30.10
2018-08-04T07:43:11.095Z,30.10
2018-08-04T07:45:38.045Z,29.80
2018-08-04T07:48:04.928Z,30.10
2018-08-04T07:50:31.870Z,30.80
2018-08-04T07:53:11.130Z,31.80
2018-08-04T07:55:39.295Z,32.00
2018-08-04T07:58:06.920Z,32.10
2018-08-04T08:00:33.848Z,32.10
2018-08-04T08:03:14.294Z,32.10
2018-08-04T08:05:58.267Z,32.20
2018-08-04T08:08:41.036Z,32.20
2018-08-04T08:11:23.090Z,32.20
2018-08-04T08:13:51.057Z,32.30
2018-08-04T08:16:17.976Z,32.50
2018-08-04T08:18:45.582Z,33.30
2018-08-04T08:21:12.512Z,33.30
2018-08-04T08:23:39.369Z,34.30
2018-08-04T08:26:06.393Z,34.70
2018-08-04T08:28:33.261Z,36.70
2018-08-04T08:31:00.235Z,38.70
2018-08-04T08:33:27.116Z,40.00
2018-08-04T08:35:54.108Z,40.10
2018-08-04T08:38:20.969Z,39.80
2018-08-04T08:41:02.183Z,40.30
2018-08-04T08:43:42.983Z,40.60
2018-08-04T08:49:07.988Z,40.90
2018-08-04T08:51:49.642Z,40.20
2018-08-04T08:57:09.455Z,40.30
2018-08-04T08:59:47.278Z,39.10
2018-08-04T09:02:21.919Z,39.30
2018-08-04T09:04:51.728Z,39.10
2018-08-04T09:07:33.489Z,39.40
2018-08-04T09:10:15.722Z,39.90
2018-08-04T09:12:43.453Z,40.10
2018-08-04T09:15:24.783Z,40.10
2018-08-04T09:18:02.061Z,39.60
2018-08-04T09:20:41.889Z,39.50
2018-08-04T09:26:03.562Z,39.10
2018-08-04T09:28:31.438Z,39.20
2018-08-04T09:30:58.622Z,39.50
2018-08-04T09:33:35.167Z,38.90
2018-08-04T09:36:15.118Z,38.90
2018-08-04T09:38:47.647Z,38.50
2018-08-04T09:41:25.461Z,38.00
2018-08-04T09:44:07.661Z,38.40
2018-08-04T09:46:48.492Z,38.40
2018-08-04T09:49:27.983Z,38.40
2018-08-04T09:52:09.556Z,39.20
2018-08-04T09:54:48.537Z,39.10
2018-08-04T09:59:56.113Z,40.00
2018-08-04T10:02:23.152Z,39.90
2018-08-04T10:04:50.756Z,38.60
2018-08-04T10:07:17.720Z,38.60
2018-08-04T10:09:44.637Z,39.60
2018-08-04T10:12:11.557Z,40.20
2018-08-04T10:14:38.456Z,40.30
2018-08-04T10:17:05.393Z,40.10
2018-08-04T10:19:32.262Z,40.90
2018-08-04T10:21:59.222Z,40.70
2018-08-04T10:24:26.821Z,40.60
2018-08-04T10:26:53.696Z,40.60
2018-08-04T10:29:20.607Z,40.30
2018-08-04T10:31:47.460Z,40.40
2018-08-04T10:34:14.383Z,40.90
2018-08-04T10:36:41.434Z,40.60
2018-08-04T10:39:08.373Z,39.40
2018-08-04T10:41:35.309Z,39.60
2018-08-04T10:44:03.090Z,40.00
2018-08-04T10:46:29.989Z,40.00
2018-08-04T10:48:56.900Z,40.40
2018-08-04T10:51:23.781Z,40.60
2018-08-04T10:53:50.788Z,40.20
2018-08-04T10:56:17.672Z,40.50
2018-08-04T10:58:44.580Z,40.80
2018-08-04T11:01:11.444Z,40.80
2018-08-04T11:03:38.409Z,41.10
2018-08-04T11:06:05.290Z,40.80
2018-08-04T11:08:32.217Z,40.70
2018-08-04T11:10:59.118Z,40.50
2018-08-04T11:13:26.037Z,40.50
2018-08-04T11:15:52.958Z,40.60
2018-08-04T11:18:20.613Z,40.90
2018-08-04T11:20:48.233Z,39.70
2018-08-04T11:23:15.152Z,39.60
2018-08-04T11:25:42.051Z,40.70
2018-08-04T11:28:08.966Z,40.40
2018-08-04T11:30:35.842Z,40.90
2018-08-04T11:33:02.832Z,40.10
2018-08-04T11:35:29.688Z,39.60
2018-08-04T11:37:56.635Z,39.40
2018-08-04T11:40:23.516Z,39.40
2018-08-04T11:42:50.420Z,38.80
2018-08-04T11:45:17.255Z,38.70
2018-08-04T11:47:44.174Z,38.30
2018-08-04T11:50:11.055Z,38.20
2018-08-04T11:52:37.913Z,38.00
2018-08-04T11:55:04.898Z,37.70
2018-08-04T11:57:32.496Z,38.00
2018-08-04T11:59:59.392Z,38.00
2018-08-04T12:02:26.256Z,38.20
2018-08-04T12:04:53.956Z,37.60
2018-08-04T12:07:20.835Z,37.60
2018-08-04T12:09:47.771Z,37.80
2018-08-04T12:12:14.653Z,38.00
2018-08-04T12:14:42.376Z,38.00
2018-08-04T12:17:09.264Z,37.90
2018-08-04T12:19:36.932Z,37.70
2018-08-04T12:22:04.593Z,37.80
2018-08-04T12:24:31.494Z,37.80
2018-08-04T12:26:58.344Z,37.20
2018-08-04T12:29:25.265Z,37.10
2018-08-04T12:31:52.136Z,37.10
2018-08-04T12:34:19.024Z,36.90
2018-08-04T12:36:45.930Z,36.90
2018-08-04T12:39:12.839Z,36.60
2018-08-04T12:41:39.710Z,36.30
2018-08-04T12:44:06.679Z,36.20
2018-08-04T12:46:34.344Z,35.60
2018-08-04T12:49:02.010Z,35.50
2018-08-04T12:51:29.673Z,35.60
2018-08-04T12:53:57.349Z,35.40
2018-08-04T12:56:24.211Z,35.40
2018-08-04T12:58:51.136Z,35.60
2018-08-04T13:01:18.848Z,35.50
2018-08-04T13:03:45.775Z,35.50
2018-08-04T13:06:12.641Z,35.30
2018-08-04T13:08:39.560Z,35.30
2018-08-04T13:11:06.436Z,35.30
2018-08-04T13:13:33.313Z,35.50
2018-08-04T13:16:00.289Z,35.60
2018-08-04T13:18:27.132Z,35.80
2018-08-04T13:20:54.035Z,35.90
2018-08-04T13:23:20.965Z,36.60
2018-08-04T13:25:48.661Z,37.50
2018-08-04T13:28:16.275Z,37.90
2018-08-04T13:30:43.192Z,37.90
2018-08-04T13:33:10.052Z,38.20
2018-08-04T13:35:36.961Z,38.30
2018-08-04T13:38:04.620Z,38.10
2018-08-04T13:40:31.544Z,38.00
2018-08-04T13:42:58.480Z,37.70
2018-08-04T13:45:25.412Z,38.20
2018-08-04T13:47:52.255Z,38.10
2018-08-04T13:50:19.246Z,37.00
2018-08-04T13:52:46.065Z,37.80
2018-08-04T13:55:12.982Z,37.80
2018-08-04T13:57:39.848Z,37.90
2018-08-04T14:00:06.816Z,38.10
2018-08-04T14:02:34.408Z,39.20
2018-08-04T14:05:01.349Z,39.10
2018-08-04T14:07:28.203Z,39.50
2018-08-04T14:09:55.136Z,39.50
2018-08-04T14:12:22.006Z,38.80
2018-08-04T14:14:48.973Z,39.40
2018-08-04T14:17:15.876Z,39.40
2018-08-04T14:19:42.781Z,39.20
2018-08-04T14:22:09.668Z,39.10
2018-08-04T14:24:36.573Z,39.00
2018-08-04T14:27:04.177Z,38.10
2018-08-04T14:29:31.096Z,38.00
2018-08-04T14:31:58.752Z,37.40
2018-08-04T14:34:26.365Z,36.80
2018-08-04T14:36:53.284Z,36.80
2018-08-04T14:39:20.173Z,36.30
2018-08-04T14:41:47.079Z,36.00
2018-08-04T14:44:13.925Z,35.80
2018-08-04T14:46:40.863Z,35.90
2018-08-04T14:49:07.711Z,35.70
2018-08-04T14:51:34.639Z,35.60
2018-08-04T14:54:01.505Z,35.30
2018-08-04T14:56:28.411Z,35.30
2018-08-04T14:58:55.266Z,35.30
2018-08-04T15:01:22.904Z,35.80
2018-08-04T15:03:49.764Z,35.70
2018-08-04T15:06:16.673Z,36.10
2018-08-04T15:08:43.521Z,36.60
2018-08-04T15:11:10.445Z,36.70
2018-08-04T15:13:37.296Z,36.90
2018-08-04T15:16:04.292Z,36.90
2018-08-04T15:18:31.889Z,36.70
2018-08-04T15:20:58.829Z,36.70
2018-08-04T15:23:25.683Z,36.60
2018-08-04T15:25:52.632Z,36.30
2018-08-04T15:28:19.484Z,36.00
2018-08-04T15:30:47.236Z,36.00
2018-08-04T15:33:14.188Z,35.70
2018-08-04T15:35:41.194Z,35.60
2018-08-04T15:38:18.050Z,35.50
2018-08-04T15:40:44.992Z,35.30
2018-08-04T15:43:11.853Z,35.20
2018-08-04T15:45:38.757Z,35.00
2018-08-04T15:48:05.757Z,35.00
2018-08-04T15:50:33.335Z,35.20
2018-08-04T15:53:00.265Z,35.20
2018-08-04T15:55:27.126Z,35.50
2018-08-04T15:57:54.053Z,35.50
2018-08-04T16:00:20.897Z,35.60
2018-08-04T16:02:47.878Z,35.60
2018-08-04T16:05:14.750Z,35.70
2018-08-04T16:07:41.692Z,35.80
2018-08-04T16:10:08.564Z,36.10
2018-08-04T16:12:36.208Z,36.30
2018-08-04T16:15:03.271Z,36.30
2018-08-04T16:17:30.899Z,36.90
2018-08-04T16:19:57.769Z,36.90
2018-08-04T16:22:24.671Z,36.80
2018-08-04T16:24:51.631Z,36.90
2018-08-04T16:27:18.549Z,37.10
2018-08-04T16:29:45.387Z,37.00
2018-08-04T16:32:12.310Z,37.00
2018-08-04T16:34:39.893Z,37.00
2018-08-04T16:37:06.800Z,37.00
2018-08-04T16:39:33.660Z,36.90
2018-08-04T16:42:01.403Z,36.90
2018-08-04T16:44:28.246Z,36.90
2018-08-04T16:46:55.157Z,36.40
2018-08-04T16:49:22.037Z,36.20
2018-08-04T16:51:48.990Z,36.00
2018-08-04T16:54:15.901Z,35.80
2018-08-04T16:56:42.755Z,35.70
2018-08-04T16:59:09.664Z,35.80
2018-08-04T17:01:36.516Z,36.00
2018-08-04T17:04:03.485Z,36.10
2018-08-04T17:06:30.419Z,36.00
2018-08-04T17:08:57.327Z,35.90
2018-08-04T17:11:24.260Z,35.90
2018-08-04T17:13:52.103Z,35.60
2018-08-04T17:16:18.967Z,35.60
2018-08-04T17:18:46.683Z,35.40
2018-08-04T17:21:13.524Z,35.40
2018-08-04T17:23:40.436Z,35.40
2018-08-04T17:26:07.316Z,35.30
2018-08-04T17:28:34.250Z,35.30
2018-08-04T17:31:01.138Z,35.20
2018-08-04T17:33:28.049Z,35.10
2018-08-04T17:35:55.965Z,35.00
2018-08-04T17:38:22.930Z,34.90
2018-08-04T17:40:49.804Z,34.90
2018-08-04T17:43:16.748Z,34.80
2018-08-04T17:45:43.651Z,34.70
2018-08-04T17:48:10.629Z,34.70
2018-08-04T17:50:37.527Z,34.60
2018-08-04T17:53:04.502Z,34.60
2018-08-04T17:55:32.125Z,34.60
2018-08-04T17:57:59.097Z,34.50
2018-08-04T18:00:25.957Z,34.50
2018-08-04T18:02:52.892Z,34.50
2018-08-04T18:05:19.762Z,34.60
2018-08-04T18:07:47.772Z,34.60
2018-08-04T18:10:14.777Z,34.60
2018-08-04T18:12:41.708Z,34.60
2018-08-04T18:15:08.572Z,34.70
2018-08-04T18:17:37.158Z,34.40
2018-08-04T18:20:04.184Z,34.40
2018-08-04T18:22:31.809Z,34.30
2018-08-04T18:24:58.716Z,34.30
2018-08-04T18:27:25.567Z,34.20
2018-08-04T18:29:52.536Z,34.00
2018-08-04T18:32:19.391Z,34.10
2018-08-04T18:34:46.345Z,33.80
2018-08-04T18:37:13.197Z,33.70
2018-08-04T18:39:40.113Z,33.60
2018-08-04T18:42:06.995Z,33.50
2018-08-04T18:44:33.940Z,33.40
2018-08-04T18:47:01.549Z,33.30
2018-08-04T18:49:28.485Z,33.30
2018-08-04T18:51:55.339Z,33.20
2018-08-04T18:54:22.257Z,33.20
2018-08-04T18:56:49.168Z,33.10
2018-08-04T18:59:16.145Z,33.00
2018-08-04T19:01:42.996Z,32.90
2018-08-04T19:04:09.914Z,32.80
2018-08-04T19:06:36.776Z,32.70
2018-08-04T19:09:03.849Z,32.70
2018-08-04T19:11:30.763Z,32.60
2018-08-04T19:13:58.424Z,32.40
2018-08-04T19:16:26.139Z,32.20
2018-08-04T19:18:53.085Z,32.20
2018-08-04T19:21:20.072Z,32.20
2018-08-04T19:23:47.048Z,32.20
2018-08-04T19:26:13.885Z,32.10
2018-08-04T19:28:40.855Z,32.10
2018-08-04T19:31:07.701Z,32.00
2018-08-04T19:33:34.615Z,32.00
2018-08-04T19:38:34.992Z,31.80
2018-08-04T19:41:01.865Z,31.70
2018-08-04T19:43:28.776Z,31.80
2018-08-04T19:45:55.649Z,31.70
2018-08-04T19:48:22.512Z,31.80
2018-08-04T19:50:49.450Z,31.70
2018-08-04T19:53:16.311Z,31.70
2018-08-04T19:55:44.021Z,31.60
2018-08-04T19:58:10.849Z,31.60
2018-08-04T20:00:37.788Z,31.50
2018-08-04T20:03:04.660Z,31.60
2018-08-04T20:05:31.563Z,31.50
2018-08-04T20:07:59.152Z,31.40
2018-08-04T20:10:26.066Z,31.40
2018-08-04T20:12:53.717Z,31.30
2018-08-04T20:15:20.661Z,31.30
2018-08-04T20:17:47.511Z,31.40
2018-08-04T20:20:14.449Z,31.30
2018-08-04T20:22:41.296Z,31.30
2018-08-04T20:25:08.221Z,31.20
2018-08-04T20:27:35.090Z,31.10
2018-08-04T20:30:02.837Z,30.90
2018-08-04T20:32:29.735Z,30.90
2018-08-04T20:34:56.719Z,30.90
2018-08-04T20:37:23.594Z,30.70
2018-08-04T20:39:51.248Z,30.70
2018-08-04T20:42:18.114Z,30.60
2018-08-04T20:44:45.121Z,30.60
2018-08-04T20:47:12.043Z,30.50
2018-08-04T20:49:38.953Z,30.50
2018-08-04T20:52:05.844Z,30.50
2018-08-04T20:54:32.773Z,30.50
2018-08-04T20:56:59.708Z,30.40
2018-08-04T20:59:26.612Z,30.30
2018-08-04T21:01:53.557Z,30.30
2018-08-04T21:04:21.217Z,30.20
2018-08-04T21:06:48.094Z,30.10
2018-08-04T21:09:15.020Z,29.90
2018-08-04T21:11:42.792Z,30.10
2018-08-04T21:14:09.668Z,30.00
2018-08-04T21:16:36.586Z,29.80
2018-08-04T21:19:03.451Z,29.90
2018-08-04T21:21:30.457Z,29.70
2018-08-04T21:23:57.309Z,29.80
2018-08-04T21:26:25.017Z,29.60
2018-08-04T21:28:51.868Z,29.60
2018-08-04T21:31:18.802Z,29.60
2018-08-04T21:33:45.669Z,29.60
2018-08-04T21:36:12.617Z,29.60
2018-08-04T21:38:39.470Z,29.50
2018-08-04T21:41:06.408Z,29.40
2018-08-04T21:43:33.288Z,29.30
2018-08-04T21:46:00.957Z,29.30
2018-08-04T21:48:27.818Z,29.30
2018-08-04T21:50:54.737Z,29.30
2018-08-04T21:53:22.339Z,29.20
2018-08-04T21:55:49.323Z,29.20
2018-08-04T21:58:16.196Z,29.20
2018-08-04T22:00:44.009Z,29.00
2018-08-04T22:03:10.908Z,29.00
2018-08-04T22:05:38.557Z,29.00
2018-08-04T22:08:28.878Z,29.00
2018-08-04T22:10:55.805Z,29.00
2018-08-04T22:13:23.465Z,28.80
2018-08-04T22:15:51.121Z,28.80
2018-08-04T22:18:18.720Z,28.80
2018-08-04T22:20:45.637Z,28.80
2018-08-04T22:23:13.225Z,28.70
2018-08-04T22:25:40.130Z,28.70
2018-08-04T22:28:07.733Z,28.70
2018-08-04T22:30:34.669Z,28.70
2018-08-04T22:33:01.573Z,28.70
2018-08-04T22:35:28.496Z,28.60
2018-08-04T22:37:55.369Z,28.70
2018-08-04T22:40:23.085Z,28.50
2018-08-04T22:42:49.954Z,28.50
2018-08-04T22:45:26.016Z,28.60
2018-08-04T22:47:52.881Z,28.30
2018-08-04T22:50:20.473Z,28.10
2018-08-04T22:52:47.381Z,28.10
2018-08-04T22:55:14.225Z,28.10
2018-08-04T22:57:41.149Z,28.00
2018-08-04T23:00:08.002Z,28.00
2018-08-04T23:02:34.976Z,28.00
2018-08-04T23:05:02.608Z,27.80
2018-08-04T23:07:29.512Z,27.80
2018-08-04T23:09:56.372Z,27.70
2018-08-04T23:12:23.333Z,27.70
2018-08-04T23:14:50.244Z,27.70
2018-08-04T23:17:17.145Z,27.60
2018-08-04T23:19:43.988Z,27.60
2018-08-04T23:22:10.925Z,27.60
2018-08-04T23:24:37.771Z,27.60
2018-08-04T23:27:04.688Z,27.60
2018-08-04T23:29:31.527Z,27.60
2018-08-04T23:31:58.425Z,27.40
2018-08-04T23:34:26.011Z,27.40
2018-08-04T23:36:52.939Z,27.40
2018-08-04T23:39:20.540Z,27.40
2018-08-04T23:41:47.447Z,27.40
2018-08-04T23:44:14.332Z,27.40
2018-08-04T23:46:41.258Z,27.40
2018-08-04T23:49:08.096Z,27.30
2018-08-04T23:51:35.068Z,27.10
2018-08-04T23:54:01.989Z,27.20
2018-08-04T23:56:28.964Z,27.00
2018-08-04T23:58:55.810Z,26.90
